Time;durP1;ratioP1;P1;durP2;ratioP2;P2;SDS_P1;SDS_P2;PMS_P1;PMS_P2;Temp;Humidity;BMP_temperature;BMP_pressure;BME280_temperature;BME280_humidity;BME280_pressure;Samples;Min_cycle;Max_cycle;Signal;HPM_P1;HPM_P2
2022/04/29 00:01:03;;;;;;;8.73;5.35;;;;;;;4.22;65.73;100214.53;4974908;28;20201;-73
2022/04/29 00:03:31;;;;;;;9.93;5.45;;;;;;;4.25;65.94;100214.81;4975851;28;20483;-73
2022/04/29 00:05:58;;;;;;;10.05;5.57;;;;;;;4.27;65.82;100217.31;4974518;28;20510;-65
2022/04/29 00:08:26;;;;;;;13.85;5.95;;;;;;;4.28;65.69;100219.78;4976154;28;20069;-66
2022/04/29 00:10:52;;;;;;;7.47;4.22;;;;;;;4.26;65.65;100221.16;4975861;28;20054;-65
2022/04/29 00:13:20;;;;;;;10.15;5.55;;;;;;;4.25;65.64;100219.50;4975869;28;20050;-65
2022/04/29 00:15:47;;;;;;;9.40;5.75;;;;;;;4.27;65.91;100222.81;4975793;28;20078;-65
2022/04/29 00:18:15;;;;;;;10.98;5.22;;;;;;;4.26;65.88;100224.72;4975677;28;20055;-66
2022/04/29 00:20:42;;;;;;;10.07;5.20;;;;;;;4.29;65.59;100220.63;4975730;28;20478;-66
2022/04/29 00:23:10;;;;;;;10.18;5.25;;;;;;;4.29;65.75;100223.38;4975836;28;20548;-66
2022/04/29 00:25:38;;;;;;;10.38;6.05;;;;;;;4.26;65.63;100224.72;4976150;28;20137;-66
2022/04/29 00:28:05;;;;;;;11.23;6.35;;;;;;;4.26;65.74;100221.97;4990236;28;20065;-65
2022/04/29 00:30:33;;;;;;;11.02;5.70;;;;;;;4.24;65.98;100221.44;4975104;28;20057;-65
2022/04/29 00:33:00;;;;;;;13.52;6.50;;;;;;;4.22;65.93;100220.03;4975500;28;20042;-65
2022/04/29 00:35:27;;;;;;;10.27;5.97;;;;;;;4.20;65.99;100231.34;4975329;28;20399;-65
2022/04/29 00:37:56;;;;;;;11.52;6.35;;;;;;;4.17;66.28;100228.31;4974179;28;20065;-65
2022/04/29 00:40:28;;;;;;;10.77;6.70;;;;;;;4.13;66.47;100233.53;4975292;28;20467;-64
2022/04/29 00:42:56;;;;;;;11.63;6.18;;;;;;;4.14;66.29;100234.38;4975017;28;20101;-65
2022/04/29 00:45:24;;;;;;;10.43;6.55;;;;;;;4.16;66.50;100227.47;4974958;28;20137;-65
2022/04/29 00:47:53;;;;;;;9.95;5.85;;;;;;;4.23;65.96;100227.22;4975233;28;20065;-64
2022/04/29 00:50:29;;;;;;;10.70;6.32;;;;;;;4.25;66.40;100225.84;4973649;28;20050;-64
2022/04/29 00:52:59;;;;;;;9.77;6.15;;;;;;;4.23;66.21;100221.72;4974972;28;20051;-64
2022/04/29 00:55:28;;;;;;;12.45;6.63;;;;;;;4.20;66.15;100219.50;4974747;28;20058;-64
2022/04/29 00:57:58;;;;;;;12.60;5.93;;;;;;;4.17;66.20;100229.13;4975092;28;20109;-65
2022/04/29 01:00:25;;;;;;;13.68;6.82;;;;;;;4.14;66.16;100223.38;4974972;28;20054;-64
2022/04/29 01:02:54;;;;;;;11.13;6.65;;;;;;;4.14;66.27;100223.38;4974920;28;20050;-64
2022/04/29 01:05:24;;;;;;;13.68;6.85;;;;;;;4.04;66.58;100213.16;4974772;28;20528;-64
2022/04/29 01:07:51;;;;;;;14.13;7.10;;;;;;;3.96;66.61;100213.69;4975121;28;20530;-64
2022/04/29 01:10:20;;;;;;;15.15;8.23;;;;;;;3.91;66.87;100213.69;4974560;28;20525;-64
2022/04/29 01:12:55;;;;;;;13.05;7.55;;;;;;;3.85;66.82;100220.31;4974452;28;20545;-65
2022/04/29 01:15:23;;;;;;;15.15;7.18;;;;;;;3.82;66.90;100217.25;4974656;28;20431;-63
2022/04/29 01:17:54;;;;;;;10.73;7.07;;;;;;;3.83;66.81;100216.16;4974854;28;20046;-63
2022/04/29 01:20:25;;;;;;;17.13;8.20;;;;;;;3.77;67.10;100212.56;4974536;28;20046;-64
2022/04/29 01:22:52;;;;;;;13.95;7.35;;;;;;;3.77;66.96;100215.31;4974557;28;20569;-64
2022/04/29 01:25:19;;;;;;;13.80;8.00;;;;;;;3.72;67.04;100204.28;4974438;28;20050;-64
2022/04/29 01:27:46;;;;;;;14.50;7.97;;;;;;;3.70;67.14;100211.97;4974564;28;20049;-64
2022/04/29 01:30:17;;;;;;;13.43;6.93;;;;;;;3.68;67.02;100212.25;4963187;28;20139;-65
2022/04/29 01:32:45;;;;;;;13.02;7.70;;;;;;;3.62;67.32;100213.34;4954974;29;20059;-65
2022/04/29 01:35:13;;;;;;;12.95;7.75;;;;;;;3.62;67.38;100212.53;4961752;28;20051;-64
2022/04/29 01:37:42;;;;;;;12.82;7.80;;;;;;;3.59;67.34;100211.13;4974347;28;20116;-64
2022/04/29 01:40:09;;;;;;;12.10;7.43;;;;;;;3.57;67.29;100212.50;4974058;28;20046;-63
2022/04/29 01:42:38;;;;;;;20.70;8.13;;;;;;;3.57;67.90;100212.50;4973798;28;20094;-63
2022/04/29 01:45:05;;;;;;;15.70;8.52;;;;;;;3.57;67.69;100215.25;4974000;28;20055;-64
2022/04/29 01:47:32;;;;;;;20.08;9.60;;;;;;;3.60;67.83;100217.47;4974295;28;20050;-65
2022/04/29 01:49:59;;;;;;;15.60;8.55;;;;;;;3.60;67.79;100218.31;4973888;28;20054;-65
2022/04/29 01:52:27;;;;;;;13.68;7.40;;;;;;;3.58;67.77;100205.91;4974096;28;20046;-65
2022/04/29 01:54:54;;;;;;;14.98;8.48;;;;;;;3.54;67.98;100207.56;4973964;28;20145;-64
2022/04/29 01:57:21;;;;;;;15.07;8.68;;;;;;;3.51;67.97;100210.84;4974097;28;20061;-64
2022/04/29 01:59:48;;;;;;;12.73;7.50;;;;;;;3.51;67.98;100214.44;4974054;28;20047;-64
2022/04/29 02:02:16;;;;;;;17.30;8.57;;;;;;;3.48;68.29;100214.97;4972604;28;20054;-64
2022/04/29 02:04:44;;;;;;;14.80;8.00;;;;;;;3.47;67.94;100212.50;4973967;28;20070;-64
2022/04/29 02:07:11;;;;;;;17.27;8.13;;;;;;;3.47;68.30;100218.78;4973979;28;20054;-64
2022/04/29 02:09:38;;;;;;;13.63;7.85;;;;;;;3.47;68.06;100223.50;4973759;28;20050;-64
2022/04/29 02:12:06;;;;;;;12.50;7.45;;;;;;;3.47;68.17;100220.75;4973968;28;20055;-64
2022/04/29 02:14:39;;;;;;;13.10;7.90;;;;;;;3.44;68.22;100219.34;4972654;28;20579;-64
2022/04/29 02:17:08;;;;;;;18.23;8.18;;;;;;;3.43;68.56;100223.19;4973037;28;20074;-65
2022/04/29 02:19:35;;;;;;;14.63;7.95;;;;;;;3.41;68.53;100225.38;4972698;28;20057;-65
2022/04/29 02:22:05;;;;;;;15.05;8.30;;;;;;;3.38;68.37;100220.41;4973567;28;20061;-65
2022/04/29 02:24:32;;;;;;;16.10;8.75;;;;;;;3.39;68.33;100224.00;4973721;28;20057;-65
2022/04/29 02:27:00;;;;;;;14.20;7.15;;;;;;;3.38;68.25;100223.16;4972296;28;20586;-65
2022/04/29 02:29:27;;;;;;;11.60;7.18;;;;;;;3.36;68.14;100222.63;4973762;28;20097;-65
2022/04/29 02:31:56;;;;;;;16.33;8.02;;;;;;;3.39;68.13;100230.34;4962922;28;20098;-65
2022/04/29 02:34:23;;;;;;;14.40;7.70;;;;;;;3.41;68.00;100225.38;4954143;29;20058;-72
2022/04/29 02:36:51;;;;;;;11.93;6.97;;;;;;;3.42;68.23;100226.22;4954185;29;20074;-74
2022/04/29 02:39:18;;;;;;;13.55;7.78;;;;;;;3.41;68.19;100228.13;4954401;28;20043;-74
2022/04/29 02:41:46;;;;;;;19.77;7.75;;;;;;;3.39;67.94;100224.00;4954145;29;20422;-74
2022/04/29 02:44:13;;;;;;;18.17;7.85;;;;;;;3.39;68.25;100226.75;4954315;28;20126;-72
2022/04/29 02:47:06;;;;;;;15.93;7.25;;;;;;;3.38;68.16;100225.09;4954387;29;20057;-74
2022/04/29 02:49:27;;;;;;;14.73;7.40;;;;;;;3.39;68.09;100230.34;4954081;28;20055;-73
2022/04/29 02:51:55;;;;;;;11.90;6.10;;;;;;;3.43;68.06;100227.84;4970226;28;20055;-74
2022/04/29 02:54:22;;;;;;;12.45;6.72;;;;;;;3.51;67.60;100225.44;4975736;28;20074;-74
2022/04/29 02:56:50;;;;;;;13.43;6.45;;;;;;;3.60;67.33;100220.22;4975992;28;20141;-74
2022/04/29 02:59:18;;;;;;;11.95;6.22;;;;;;;3.65;67.20;100220.25;4976923;28;20505;-73
2022/04/29 03:01:46;;;;;;;12.77;6.53;;;;;;;3.75;67.09;100220.25;4977095;28;20085;-73
2022/04/29 03:04:14;;;;;;;11.45;6.78;;;;;;;3.87;66.80;100229.09;4976990;28;20105;-74
2022/04/29 03:06:42;;;;;;;13.30;6.50;;;;;;;3.92;66.77;100220.00;4976783;28;20061;-74
2022/04/29 03:09:09;;;;;;;10.32;6.20;;;;;;;4.02;66.62;100231.88;4976933;28;20181;-73
2022/04/29 03:11:36;;;;;;;14.02;6.20;;;;;;;4.12;66.47;100234.66;4976785;28;20058;-74
2022/04/29 03:14:04;;;;;;;9.77;5.95;;;;;;;4.33;65.87;100240.97;4976672;28;20082;-73
2022/04/29 03:16:32;;;;;;;10.68;5.47;;;;;;;4.54;65.21;100229.69;4975377;28;20054;-73
2022/04/29 03:18:59;;;;;;;9.52;5.28;;;;;;;4.68;65.01;100236.28;4976755;28;20058;-73
2022/04/29 03:21:26;;;;;;;12.20;4.90;;;;;;;4.81;64.56;100234.88;4977049;28;20055;-73
2022/04/29 03:23:53;;;;;;;9.20;5.10;;;;;;;4.90;64.22;100234.06;4976387;28;20054;-73
2022/04/29 03:26:20;;;;;;;10.48;5.43;;;;;;;5.03;63.64;100238.13;4976716;28;20532;-74
2022/04/29 03:28:48;;;;;;;9.90;5.53;;;;;;;5.11;63.61;100245.84;4976505;28;20173;-73
2022/04/29 03:31:15;;;;;;;9.55;5.43;;;;;;;5.16;63.64;100237.56;4976520;28;20050;-74
2022/04/29 03:33:42;;;;;;;8.85;5.60;;;;;;;5.26;62.75;100246.63;4976351;28;20097;-74
2022/04/29 03:36:09;;;;;;;11.50;5.05;;;;;;;5.38;62.69;100257.34;4976434;28;20137;-73
2022/04/29 03:38:36;;;;;;;7.38;4.90;;;;;;;5.40;62.48;100255.97;4976564;28;20509;-73
2022/04/29 03:41:04;;;;;;;8.80;4.82;;;;;;;5.44;62.93;100257.06;4976044;28;20134;-73
2022/04/29 03:43:32;;;;;;;9.00;4.80;;;;;;;5.49;62.45;100262.56;4976526;28;20058;-73
2022/04/29 03:46:00;;;;;;;10.98;4.85;;;;;;;5.59;61.63;100265.28;4975160;28;20510;-73
2022/04/29 03:48:27;;;;;;;8.95;5.32;;;;;;;5.69;62.19;100264.41;4976177;28;20061;-73
2022/04/29 03:50:54;;;;;;;11.55;5.45;;;;;;;5.79;61.20;100269.03;4976366;28;20508;-65
2022/04/29 03:53:24;;;;;;;10.23;5.38;;;;;;;5.89;61.02;100263.50;4975373;28;20082;-64
2022/04/29 03:55:51;;;;;;;10.25;5.15;;;;;;;5.86;61.14;100259.34;4975693;28;20059;-64
2022/04/29 03:58:18;;;;;;;9.90;5.40;;;;;;;5.86;60.44;100261.31;4974498;28;20058;-64
2022/04/29 04:00:46;;;;;;;11.48;4.93;;;;;;;5.93;60.11;100264.59;4974897;28;20502;-64
2022/04/29 04:03:13;;;;;;;9.10;4.85;;;;;;;5.91;60.24;100259.34;4975630;28;20138;-65
2022/04/29 04:06:49;;;;;;;9.00;4.22;;;;;;;5.93;60.40;100264.59;4974380;28;20051;-64
2022/04/29 04:08:30;;;;;;;8.82;4.53;;;;;;;6.06;59.37;100269.47;4975962;28;20065;-64
2022/04/29 04:10:57;;;;;;;7.65;3.97;;;;;;;6.18;59.30;100261.66;4990941;28;20146;-65
2022/04/29 04:13:24;;;;;;;6.45;3.85;;;;;;;6.36;59.20;100263.72;4975696;28;20525;-64
2022/04/29 04:15:51;;;;;;;8.73;4.25;;;;;;;6.58;58.30;100269.66;4975478;28;20057;-64
2022/04/29 04:18:18;;;;;;;7.57;4.13;;;;;;;6.66;57.73;100266.28;4975636;28;20082;-65
2022/04/29 04:20:47;;;;;;;8.15;3.53;;;;;;;6.70;58.26;100261.81;4990795;28;20054;-64
2022/04/29 04:23:15;;;;;;;8.93;3.37;;;;;;;6.81;57.45;100268.91;4975847;28;20162;-64
2022/04/29 04:25:42;;;;;;;6.18;3.38;;;;;;;6.90;57.25;100267.16;4975481;28;20279;-65
2022/04/29 04:28:13;;;;;;;6.70;3.67;;;;;;;7.02;56.49;100264.84;4975212;28;20085;-64
2022/04/29 04:30:40;;;;;;;5.05;2.95;;;;;;;7.03;56.50;100259.00;4975370;28;20050;-64
2022/04/29 04:33:07;;;;;;;5.18;3.13;;;;;;;7.01;55.65;100269.53;4965943;28;20070;-64
2022/04/29 04:35:34;;;;;;;7.35;3.10;;;;;;;6.89;55.98;100262.72;4954946;29;20055;-64
2022/04/29 04:38:01;;;;;;;7.22;3.60;;;;;;;7.02;55.05;100271.19;4957561;28;20066;-64
2022/04/29 04:40:28;;;;;;;6.22;3.22;;;;;;;7.10;55.12;100264.19;4975173;28;20051;-64
2022/04/29 04:42:55;;;;;;;6.03;2.90;;;;;;;7.13;55.05;100269.13;4975167;28;20081;-65
2022/04/29 04:45:22;;;;;;;11.32;3.28;;;;;;;7.17;54.34;100273.78;4975123;28;20141;-64
2022/04/29 04:47:49;;;;;;;5.53;2.85;;;;;;;7.28;53.60;100277.28;4975117;28;20061;-64
2022/04/29 04:50:16;;;;;;;5.85;3.03;;;;;;;7.41;53.49;100271.84;4974768;28;20535;-64
2022/04/29 04:52:44;;;;;;;4.80;2.65;;;;;;;7.42;53.51;100268.00;4975273;28;20050;-71
2022/04/29 04:55:11;;;;;;;4.05;2.40;;;;;;;7.44;52.05;100268.50;4974553;28;20054;-72
2022/04/29 04:57:38;;;;;;;4.38;2.30;;;;;;;7.36;51.28;100282.16;4974870;28;20050;-73
2022/04/29 05:00:06;;;;;;;5.82;3.03;;;;;;;7.37;50.75;100281.03;4974777;28;20106;-72
2022/04/29 05:02:33;;;;;;;4.70;2.42;;;;;;;7.42;50.99;100272.69;4974740;28;20422;-72
2022/04/29 05:05:00;;;;;;;6.13;2.80;;;;;;;7.49;50.91;100268.44;4974827;28;20145;-72
2022/04/29 05:07:28;;;;;;;4.88;2.67;;;;;;;7.75;50.82;100266.19;4974856;28;20518;-72
2022/04/29 05:09:55;;;;;;;3.10;1.90;;;;;;;8.06;50.45;100275.75;4974607;28;20167;-72
2022/04/29 05:12:22;;;;;;;7.20;1.98;;;;;;;8.31;49.39;100280.13;4975624;28;20146;-72
2022/04/29 05:14:49;;;;;;;3.35;2.00;;;;;;;8.46;48.87;100272.41;4974459;28;20138;-72
2022/04/29 05:17:17;;;;;;;5.20;2.50;;;;;;;8.66;48.06;100276.81;4973864;28;20062;-73
2022/04/29 05:19:44;;;;;;;8.60;3.17;;;;;;;8.73;47.49;100266.97;4974718;28;20145;-72
2022/04/29 05:22:11;;;;;;;7.88;2.90;;;;;;;8.87;47.08;100267.84;4974692;28;20058;-71
2022/04/29 05:24:38;;;;;;;5.97;2.45;;;;;;;8.94;47.13;100268.25;4974587;28;20554;-72
2022/04/29 05:27:05;;;;;;;9.15;4.80;;;;;;;9.11;46.27;100267.69;4974455;28;20055;-71
2022/04/29 05:29:32;;;;;;;5.38;2.22;;;;;;;9.26;45.76;100264.63;4974179;28;20051;-73
2022/04/29 05:31:59;;;;;;;4.65;2.45;;;;;;;9.38;45.21;100276.06;4974273;28;20050;-72
2022/04/29 05:34:26;;;;;;;5.40;2.00;;;;;;;9.63;44.83;100263.63;4955803;28;20059;-71
2022/04/29 05:36:53;;;;;;;6.40;2.50;;;;;;;9.91;43.51;100270.81;4955219;29;20059;-71
2022/04/29 05:42:17;;;;;;;4.78;2.67;;;;;;;10.91;41.47;100258.16;4968485;28;20066;-65
2022/04/29 05:44:45;;;;;;;3.78;2.22;;;;;;;12.48;39.74;100258.06;4974387;28;20143;-65
2022/04/29 05:47:13;;;;;;;7.93;3.50;;;;;;;14.45;35.56;100256.28;4974449;28;20086;-65
2022/04/29 05:49:40;;;;;;;4.13;2.70;;;;;;;17.07;30.75;100252.41;4974024;28;20514;-65
2022/04/29 05:52:08;;;;;;;4.20;2.20;;;;;;;19.67;26.19;100248.13;4973872;28;20054;-64
2022/04/29 05:54:36;;;;;;;6.25;2.30;;;;;;;20.90;23.25;100252.06;4973816;28;20069;-72
2022/04/29 05:57:09;;;;;;;7.00;2.28;;;;;;;20.25;23.18;100251.50;4973766;28;20062;-71
2022/04/29 05:59:36;;;;;;;3.10;1.55;;;;;;;19.25;23.45;100246.47;4973755;28;20571;-72
2022/04/29 06:02:04;;;;;;;2.58;1.52;;;;;;;19.59;22.65;100251.16;4973992;28;20109;-72
2022/04/29 06:04:31;;;;;;;6.10;2.42;;;;;;;19.53;22.76;100255.50;4973728;28;20051;-72
2022/04/29 06:06:58;;;;;;;11.48;2.63;;;;;;;19.65;22.78;100261.78;4974237;28;20092;-72
2022/04/29 06:09:25;;;;;;;11.40;2.10;;;;;;;19.88;22.13;100258.94;4973853;28;20458;-72
2022/04/29 06:11:53;;;;;;;7.57;1.80;;;;;;;19.41;21.88;100255.66;4973919;28;20078;-72
2022/04/29 06:14:25;;;;;;;4.28;1.80;;;;;;;20.17;20.84;100254.63;4973624;28;20089;-72
2022/04/29 06:16:52;;;;;;;6.75;2.42;;;;;;;19.95;20.89;100248.59;4973933;28;20533;-72
2022/04/29 06:19:19;;;;;;;3.75;1.85;;;;;;;20.91;20.14;100257.34;4973703;28;20058;-72
2022/04/29 06:21:45;;;;;;;5.38;2.20;;;;;;;23.38;17.38;100256.19;4973814;28;20054;-72
2022/04/29 06:24:12;;;;;;;3.72;1.90;;;;;;;23.96;16.59;100247.41;4973543;28;20413;-73
2022/04/29 06:26:39;;;;;;;4.90;1.90;;;;;;;22.00;17.80;100252.09;4972889;28;20059;-72
2022/04/29 06:29:06;;;;;;;2.58;1.60;;;;;;;22.46;17.78;100253.25;4977427;28;20474;-64
2022/04/29 06:31:33;;;;;;;4.70;2.47;;;;;;;23.42;16.89;100247.69;4977565;28;20054;-63
2022/04/29 06:34:00;;;;;;;4.22;1.65;;;;;;;24.68;15.85;100250.59;4962506;28;20047;-64
2022/04/29 06:36:27;;;;;;;3.60;1.58;;;;;;;24.88;14.95;100253.78;4959003;29;20047;-64
2022/04/29 06:38:54;;;;;;;3.40;1.70;;;;;;;25.48;14.83;100242.97;4957863;28;20051;-64
2022/04/29 06:41:21;;;;;;;3.08;1.40;;;;;;;26.72;13.45;100237.91;4958460;29;20058;-63
2022/04/29 06:43:48;;;;;;;3.03;1.52;;;;;;;27.51;12.02;100242.22;4957958;29;20054;-63
2022/04/29 06:46:17;;;;;;;2.38;1.13;;;;;;;26.56;11.96;100229.09;4958207;28;20056;-65
2022/04/29 06:48:45;;;;;;;1.98;1.13;;;;;;;25.13;12.92;100243.09;4957593;28;20110;-64
2022/04/29 06:51:12;;;;;;;3.50;0.90;;;;;;;24.43;12.97;100241.28;4957963;28;20110;-64
2022/04/29 06:53:41;;;;;;;7.18;1.50;;;;;;;24.83;12.89;100245.66;4957886;28;20050;-65
2022/04/29 06:56:09;;;;;;;2.97;1.60;;;;;;;25.27;12.48;100234.50;4956748;29;20047;-63
2022/04/29 06:58:36;;;;;;;2.60;1.15;;;;;;;26.06;12.26;100234.44;4964608;28;20549;-64
2022/04/29 07:01:03;;;;;;;3.28;1.48;;;;;;;27.49;11.41;100236.94;4977202;28;20062;-64
2022/04/29 07:03:31;;;;;;;11.95;4.13;;;;;;;28.48;10.97;100229.66;4976958;28;20569;-63
2022/04/29 07:06:00;;;;;;;6.40;1.40;;;;;;;28.94;10.09;100226.69;4977560;28;20043;-65
2022/04/29 07:08:30;;;;;;;3.90;1.40;;;;;;;28.07;10.63;100232.81;4976839;28;20142;-65
2022/04/29 07:10:57;;;;;;;3.13;1.35;;;;;;;27.93;10.95;100235.91;4976973;28;20101;-65
2022/04/29 07:13:25;;;;;;;3.53;1.25;;;;;;;27.69;11.09;100235.03;4976835;28;20051;-65
2022/04/29 07:15:52;;;;;;;3.05;1.42;;;;;;;28.73;10.14;100230.81;4976785;28;20494;-65
2022/04/29 07:18:20;;;;;;;4.10;1.17;;;;;;;30.71;9.52;100230.69;4976975;28;20414;-65
2022/04/29 07:20:47;;;;;;;2.83;1.15;;;;;;;33.22;8.01;100222.91;4976729;28;20070;-64
2022/04/29 07:23:14;;;;;;;3.35;1.40;;;;;;;34.65;6.95;100226.91;4976665;28;20510;-65
2022/04/29 07:25:48;;;;;;;9.60;3.63;;;;;;;35.02;7.00;100234.34;4976610;28;20046;-65
2022/04/29 07:28:14;;;;;;;1.88;1.13;;;;;;;32.47;7.65;100234.72;4976624;28;20557;-65
2022/04/29 07:30:42;;;;;;;1.88;1.38;;;;;;;33.08;7.39;100224.25;4976653;28;20057;-65
2022/04/29 07:33:09;;;;;;;2.30;1.27;;;;;;;35.28;6.41;100226.91;4976480;28;20055;-64
2022/04/29 07:43:52;;;;;;;7.55;1.17;;;;;;;27.78;10.25;100235.28;4976265;28;20053;-64
2022/04/29 07:46:21;;;;;;;2.67;1.23;;;;;;;24.43;11.82;100220.56;4976311;28;20051;-65
2022/04/29 07:48:48;;;;;;;5.97;1.35;;;;;;;22.05;13.42;100217.72;4975986;28;20077;-65
2022/04/29 07:51:15;;;;;;;17.30;4.43;;;;;;;20.33;14.46;100227.00;4976373;28;20077;-72
2022/04/29 07:53:42;;;;;;;5.75;1.95;;;;;;;18.82;15.60;100216.59;4974949;28;20462;-71
2022/04/29 07:56:09;;;;;;;7.25;1.55;;;;;;;20.50;14.97;100212.31;4976066;28;20137;-71
2022/04/29 07:58:37;;;;;;;8.43;1.63;;;;;;;25.01;11.82;100224.47;4975776;28;20141;-71
2022/04/29 08:01:08;;;;;;;2.72;1.17;;;;;;;29.25;9.65;100205.22;4975746;28;20050;-72
2022/04/29 08:03:37;;;;;;;2.92;1.27;;;;;;;31.87;8.42;100207.91;4975951;28;20070;-71
2022/04/29 08:06:05;;;;;;;5.07;1.30;;;;;;;33.38;8.05;100209.09;4975992;28;20529;-76
2022/04/29 08:08:33;;;;;;;4.07;1.50;;;;;;;29.15;9.71;100207.03;4975937;28;20053;-72
2022/04/29 08:11:01;;;;;;;2.78;1.20;;;;;;;25.14;12.13;100216.28;4958696;28;20062;-72
2022/04/29 08:13:29;;;;;;;3.83;1.40;;;;;;;22.44;13.88;100198.97;4976056;28;20082;-65
2022/04/29 08:15:58;;;;;;;2.70;1.20;;;;;;;20.82;14.83;100213.56;4975652;28;20058;-66
2022/04/29 08:18:26;;;;;;;3.67;1.00;;;;;;;19.87;15.55;100210.13;4975661;28;20047;-69
2022/04/29 08:20:53;;;;;;;2.38;1.23;;;;;;;19.41;15.55;100208.53;4975319;28;20129;-65
2022/04/29 08:23:20;;;;;;;3.33;1.67;;;;;;;18.96;16.01;100205.59;4961648;28;20144;-66
2022/04/29 08:25:48;;;;;;;4.88;2.03;;;;;;;21.53;14.37;100201.88;4956336;28;20142;-65
2022/04/29 08:28:15;;;;;;;4.47;1.27;;;;;;;26.09;11.46;100193.69;4955354;29;20080;-65
2022/04/29 08:30:42;;;;;;;2.50;1.33;;;;;;;29.89;9.79;100183.22;4956319;28;20085;-65
2022/04/29 08:33:13;;;;;;;3.50;1.00;;;;;;;30.62;9.32;100185.41;4954841;28;20106;-66
2022/04/29 08:35:41;;;;;;;2.67;1.17;;;;;;;26.95;11.14;100180.09;4955670;29;20129;-65
2022/04/29 08:38:10;;;;;;;1.98;1.10;;;;;;;23.78;12.54;100186.06;4964983;28;20161;-65
2022/04/29 08:40:42;;;;;;;2.58;1.00;;;;;;;21.25;13.93;100179.75;4975094;28;20059;-65
2022/04/29 08:43:12;;;;;;;2.95;1.30;;;;;;;19.98;14.92;100181.25;4975464;28;20043;-65
2022/04/29 08:45:39;;;;;;;4.85;1.40;;;;;;;23.71;12.63;100174.69;4975029;28;20133;-65
2022/04/29 08:48:07;;;;;;;3.85;1.23;;;;;;;27.22;10.47;100181.78;4975086;28;20060;-65
2022/04/29 08:50:34;;;;;;;2.30;1.27;;;;;;;24.48;11.70;100168.94;4974901;28;20129;-67
2022/04/29 08:53:02;;;;;;;6.47;1.48;;;;;;;22.37;12.98;100165.72;4975055;28;20054;-65
2022/04/29 09:01:10;;;;;;;2.85;1.08;;;;;;;18.05;15.94;100156.50;4973825;28;20584;-64
2022/04/29 09:03:38;;;;;;;3.05;1.25;;;;;;;17.36;16.39;100155.56;4973334;28;20065;-66
2022/04/29 09:06:06;;;;;;;2.92;1.30;;;;;;;16.88;16.79;100150.25;4974939;28;20461;-66
2022/04/29 09:08:41;;;;;;;7.60;1.50;;;;;;;16.18;17.63;100166.66;4974862;28;20047;-65
2022/04/29 09:11:10;;;;;;;3.20;1.30;;;;;;;15.58;18.07;100166.75;4972247;28;20074;-65
2022/04/29 09:13:38;;;;;;;7.82;1.48;;;;;;;15.28;18.56;100165.28;4955156;28;20468;-65
2022/04/29 09:16:12;;;;;;;49.15;14.48;;;;;;;17.11;17.26;100151.31;4955001;28;20137;-64
2022/04/29 09:18:49;;;;;;;3.90;1.67;;;;;;;20.12;14.99;100154.03;4955510;28;20046;-65
2022/04/29 09:21:26;;;;;;;3.15;1.45;;;;;;;19.19;15.53;100144.38;4955498;28;20074;-64
2022/04/29 09:23:57;;;;;;;3.22;1.38;;;;;;;17.98;16.29;100141.44;4955475;28;20059;-65
2022/04/29 09:26:27;;;;;;;6.20;1.35;;;;;;;16.85;17.54;100149.00;4955183;28;20043;-65
2022/04/29 09:29:08;;;;;;;3.67;1.20;;;;;;;16.16;18.24;100154.97;4972791;28;20051;-65
2022/04/29 09:31:58;;;;;;;4.32;1.33;;;;;;;20.40;15.14;100143.13;4974309;28;20058;-66
2022/04/29 09:34:53;;;;;;;2.05;1.17;;;;;;;23.26;12.97;100151.50;4938950;28;20051;-65
2022/04/29 09:39:26;;;;;;;3.75;1.45;;;;;;;22.35;13.32;100145.44;4954996;29;20051;-65
2022/04/29 09:40:46;;;;;;;6.18;1.35;;;;;;;19.43;15.21;100138.41;4963932;28;20142;-65
2022/04/29 09:43:13;;;;;;;2.95;1.63;;;;;;;17.43;16.78;100136.91;4974180;28;20054;-64
2022/04/29 09:45:40;;;;;;;2.10;1.30;;;;;;;16.26;17.68;100134.00;4973879;28;20577;-65
2022/04/29 09:48:10;;;;;;;5.80;1.52;;;;;;;15.73;18.29;100134.34;4974074;28;20528;-65
2022/04/29 09:51:04;;;;;;;3.40;1.33;;;;;;;15.40;18.47;100137.31;4973856;28;20058;-65
2022/04/29 09:53:32;;;;;;;3.28;1.33;;;;;;;15.34;18.63;100133.03;4974119;28;20054;-64
2022/04/29 09:56:11;;;;;;;2.97;1.55;;;;;;;15.51;18.35;100132.84;4973732;28;20154;-64
2022/04/29 09:58:40;;;;;;;4.57;1.77;;;;;;;15.50;18.44;100117.19;4973893;28;20086;-65
2022/04/29 10:01:09;;;;;;;7.78;1.55;;;;;;;15.33;18.91;100123.00;4965883;28;20054;-65
2022/04/29 10:03:38;;;;;;;;;;;;;;;14.82;19.31;100120.84;4954289;28;20057;-65
2022/04/29 10:06:10;;;;;;;3.10;1.33;;;;;;;14.21;19.70;100105.78;4955359;29;19926;-65
2022/04/29 10:08:39;;;;;;;7.97;1.55;;;;;;;14.07;19.65;100107.25;4954074;29;20070;-65
2022/04/29 10:11:06;;;;;;;4.18;1.40;;;;;;;13.90;19.83;100101.78;4956373;28;20130;-65
2022/04/29 10:13:33;;;;;;;4.13;1.45;;;;;;;13.74;20.38;100111.94;4973937;28;20055;-65
2022/04/29 10:16:02;;;;;;;3.80;1.30;;;;;;;13.52;20.49;100112.22;4974007;28;20133;-66
2022/04/29 10:21:24;;;;;;;5.90;1.42;;;;;;;13.41;20.75;100105.41;4973821;28;20137;-65
2022/04/29 10:23:51;;;;;;;5.18;1.48;;;;;;;13.69;20.02;100098.97;4973772;28;20146;-65
2022/04/29 10:26:19;;;;;;;2.75;1.45;;;;;;;13.83;20.17;100115.50;4973721;28;20093;-65
2022/04/29 10:28:47;;;;;;;3.38;1.50;;;;;;;13.79;20.13;100125.69;4973705;28;20042;-67
2022/04/29 10:31:21;;;;;;;3.42;1.48;;;;;;;13.66;20.14;100104.44;4972788;28;20078;-64
2022/04/29 10:33:48;;;;;;;3.55;1.50;;;;;;;13.56;20.31;100096.44;4960315;28;20532;-65
2022/04/29 10:36:16;;;;;;;2.40;1.20;;;;;;;13.59;19.98;100101.34;4954613;29;20055;-65
2022/04/29 10:38:46;;;;;;;4.15;1.70;;;;;;;13.50;20.16;100095.81;4954305;28;20079;-65
2022/04/29 10:41:21;;;;;;;4.57;1.13;;;;;;;13.44;20.50;100097.16;4954295;28;20574;-65
2022/04/29 10:43:51;;;;;;;4.82;1.90;;;;;;;13.48;20.56;100097.31;4963312;28;20058;-65
2022/04/29 10:46:24;;;;;;;2.75;1.23;;;;;;;13.59;20.64;100090.97;4973773;28;20050;-65
2022/04/29 10:48:54;;;;;;;2.83;1.42;;;;;;;13.88;20.37;100090.09;4969608;28;20452;-64
2022/04/29 10:51:27;;;;;;;;;;;;;;;14.14;20.03;100093.50;4954322;28;20061;-64
2022/04/29 10:53:56;;;;;;;4.15;1.40;;;;;;;14.26;20.07;100090.78;4953717;29;19927;-65
2022/04/29 10:56:32;;;;;;;5.10;1.35;;;;;;;13.84;20.20;100083.56;4954144;28;20485;-65
2022/04/29 10:59:11;;;;;;;2.22;1.13;;;;;;;13.90;20.42;100085.00;4956011;28;20059;-65
2022/04/29 11:01:40;;;;;;;8.13;1.50;;;;;;;13.96;20.23;100087.25;4973184;28;20046;-65
2022/04/29 11:04:31;;;;;;;3.78;1.20;;;;;;;13.88;20.27;100079.75;4973213;28;20138;-65
2022/04/29 11:06:58;;;;;;;3.95;1.00;;;;;;;13.82;20.54;100085.88;4972817;28;20051;-65
2022/04/29 11:09:47;;;;;;;3.75;1.35;;;;;;;13.94;20.26;100083.13;4973234;28;20065;-66
2022/04/29 11:12:34;;;;;;;3.08;1.42;;;;;;;14.08;20.02;100083.69;4973138;28;20498;-65
2022/04/29 11:15:12;;;;;;;2.70;1.23;;;;;;;14.10;20.05;100067.38;4975062;28;20137;-65
2022/04/29 11:17:41;;;;;;;3.50;1.45;;;;;;;13.66;20.50;100065.28;4976723;28;20055;-66
2022/04/29 11:20:25;;;;;;;2.55;1.30;;;;;;;13.53;20.41;100066.38;4976440;28;20051;-68
2022/04/29 11:26:08;;;;;;;3.35;1.27;;;;;;;13.43;20.83;100066.75;4976958;28;20042;-65
2022/04/29 11:28:36;;;;;;;6.22;1.60;;;;;;;13.34;21.13;100069.63;4976657;28;20089;-66
2022/04/29 11:31:08;;;;;;;4.22;1.48;;;;;;;13.51;20.90;100069.50;4976286;28;20054;-67
2022/04/29 11:33:37;;;;;;;3.03;1.35;;;;;;;13.41;20.65;100067.09;4965157;28;20053;-67
2022/04/29 11:36:11;;;;;;;4.95;1.15;;;;;;;13.48;20.68;100045.03;4957086;29;20043;-65
2022/04/29 11:38:47;;;;;;;3.53;2.05;;;;;;;13.69;20.60;100047.81;4956951;29;20055;-66
2022/04/29 11:41:20;;;;;;;4.05;1.52;;;;;;;13.89;20.59;100049.81;4957081;28;20055;-65
2022/04/29 11:43:51;;;;;;;8.90;3.22;;;;;;;13.87;20.51;100038.97;4956971;29;20070;-65
2022/04/29 11:46:20;;;;;;;2.28;1.30;;;;;;;13.77;20.61;100039.34;4957273;29;20064;-65
2022/04/29 11:49:16;;;;;;;4.22;1.63;;;;;;;13.54;21.05;100040.88;4963602;28;20046;-66
2022/04/29 11:51:43;;;;;;;3.10;1.40;;;;;;;13.50;21.02;100039.09;4975684;28;20058;-65
2022/04/29 11:54:11;;;;;;;3.60;1.35;;;;;;;13.61;20.92;100027.16;4975769;28;20077;-66
2022/04/29 11:56:42;;;;;;;4.75;1.40;;;;;;;13.75;20.80;100027.72;4976381;28;20050;-76
2022/04/29 11:59:10;;;;;;;4.25;1.50;;;;;;;13.97;20.67;100021.75;4976218;28;20506;-76